sensor_id;sensor_type;location;lat;lon;timestamp;pressure;altitude;pressure_sealevel;temperature;humidity
64064;BME280;50314;50.618;10.642;2024-03-02T00:01:09;95530.00;;;17.85;23.03
64064;BME280;50314;50.618;10.642;2024-03-02T00:03:37;95537.97;;;17.85;23.21
64064;BME280;50314;50.618;10.642;2024-03-02T00:06:04;95535.31;;;17.85;23.21
64064;BME280;50314;50.618;10.642;2024-03-02T00:08:29;95531.00;;;17.84;23.08
64064;BME280;50314;50.618;10.642;2024-03-02T00:11:00;95534.03;;;17.81;23.23
64064;BME280;50314;50.618;10.642;2024-03-02T00:13:28;95534.03;;;17.81;23.36
64064;BME280;50314;50.618;10.642;2024-03-02T00:15:56;95532.41;;;17.80;23.08
64064;BME280;50314;50.618;10.642;2024-03-02T00:18:25;95531.75;;;17.78;23.32
64064;BME280;50314;50.618;10.642;2024-03-02T00:20:55;95530.94;;;17.78;23.20
64064;BME280;50314;50.618;10.642;2024-03-02T00:23:22;95539.75;;;17.78;23.04
64064;BME280;50314;50.618;10.642;2024-03-02T00:25:50;95545.06;;;17.78;23.17
64064;BME280;50314;50.618;10.642;2024-03-02T00:28:23;95540.94;;;17.76;23.24
64064;BME280;50314;50.618;10.642;2024-03-02T00:31:02;95540.13;;;17.75;22.92
64064;BME280;50314;50.618;10.642;2024-03-02T00:33:32;95542.91;;;17.67;23.19
64064;BME280;50314;50.618;10.642;2024-03-02T00:35:58;95537.00;;;17.72;23.17
64064;BME280;50314;50.618;10.642;2024-03-02T00:38:25;95537.81;;;17.72;23.03
64064;BME280;50314;50.618;10.642;2024-03-02T00:40:51;95537.81;;;17.72;23.08
64064;BME280;50314;50.618;10.642;2024-03-02T00:46:01;95538.03;;;17.71;23.05
64064;BME280;50314;50.618;10.642;2024-03-02T00:48:26;95541.69;;;17.70;23.10
64064;BME280;50314;50.618;10.642;2024-03-02T00:50:52;95543.50;;;17.69;23.46
64064;BME280;50314;50.618;10.642;2024-03-02T00:53:22;95542.06;;;17.67;23.19
64064;BME280;50314;50.618;10.642;2024-03-02T00:55:49;95547.19;;;17.68;23.44
64064;BME280;50314;50.618;10.642;2024-03-02T00:58:15;95545.56;;;17.67;23.02
64064;BME280;50314;50.618;10.642;2024-03-02T01:00:41;95541.22;;;17.66;23.02
64064;BME280;50314;50.618;10.642;2024-03-02T01:03:06;95543.06;;;17.66;23.36
64064;BME280;50314;50.618;10.642;2024-03-02T01:05:33;95542.44;;;17.64;23.30
64064;BME280;50314;50.618;10.642;2024-03-02T01:07:59;95541.63;;;17.63;23.18
64064;BME280;50314;50.618;10.642;2024-03-02T01:10:24;95549.59;;;17.63;23.41
64064;BME280;50314;50.618;10.642;2024-03-02T01:12:51;95555.91;;;17.62;23.38
64064;BME280;50314;50.618;10.642;2024-03-02T01:15:17;95558.78;;;17.60;23.47
64064;BME280;50314;50.618;10.642;2024-03-02T01:17:42;95559.59;;;17.61;23.28
64064;BME280;50314;50.618;10.642;2024-03-02T01:20:08;95554.28;;;17.61;23.10
64064;BME280;50314;50.618;10.642;2024-03-02T01:22:35;95551.81;;;17.59;23.42
64064;BME280;50314;50.618;10.642;2024-03-02T01:25:01;95547.47;;;17.58;23.05
64064;BME280;50314;50.618;10.642;2024-03-02T01:27:27;95553.81;;;17.57;23.08
64064;BME280;50314;50.618;10.642;2024-03-02T01:29:53;95556.50;;;17.57;23.21
64064;BME280;50314;50.618;10.642;2024-03-02T01:32:20;95553.00;;;17.57;23.30
64064;BME280;50314;50.618;10.642;2024-03-02T01:34:45;95554.00;;;17.56;23.38
64064;BME280;50314;50.618;10.642;2024-03-02T01:37:11;95561.34;;;17.54;23.30
64064;BME280;50314;50.618;10.642;2024-03-02T01:39:37;95552.56;;;17.53;23.10
64064;BME280;50314;50.618;10.642;2024-03-02T01:42:02;95562.38;;;17.53;23.22
64064;BME280;50314;50.618;10.642;2024-03-02T01:44:28;95560.69;;;17.52;23.07
64064;BME280;50314;50.618;10.642;2024-03-02T01:46:53;95561.53;;;17.52;23.04
64064;BME280;50314;50.618;10.642;2024-03-02T01:49:19;95558.25;;;17.50;23.46
64064;BME280;50314;50.618;10.642;2024-03-02T01:51:44;95562.75;;;17.50;23.19
64064;BME280;50314;50.618;10.642;2024-03-02T01:54:10;95557.41;;;17.50;23.11
64064;BME280;50314;50.618;10.642;2024-03-02T01:56:36;95561.06;;;17.49;23.13
64064;BME280;50314;50.618;10.642;2024-03-02T01:59:01;95559.44;;;17.48;23.25
64064;BME280;50314;50.618;10.642;2024-03-02T02:01:27;95560.41;;;17.47;23.39
64064;BME280;50314;50.618;10.642;2024-03-02T02:03:52;95564.06;;;17.46;23.26
64064;BME280;50314;50.618;10.642;2024-03-02T02:06:18;95560.59;;;17.45;23.52
64064;BME280;50314;50.618;10.642;2024-03-02T02:08:44;95562.41;;;17.45;23.60
64064;BME280;50314;50.618;10.642;2024-03-02T02:11:10;95556.28;;;17.44;23.24
64064;BME280;50314;50.618;10.642;2024-03-02T02:13:36;95549.31;;;17.43;23.35
64064;BME280;50314;50.618;10.642;2024-03-02T02:16:06;95558.47;;;17.41;23.42
64064;BME280;50314;50.618;10.642;2024-03-02T02:18:32;95560.13;;;17.42;23.11
64064;BME280;50314;50.618;10.642;2024-03-02T02:20:58;95558.47;;;17.41;23.44
64064;BME280;50314;50.618;10.642;2024-03-02T02:23:23;95555.00;;;17.40;23.60
64064;BME280;50314;50.618;10.642;2024-03-02T02:25:48;95547.84;;;17.41;23.44
64064;BME280;50314;50.618;10.642;2024-03-02T02:28:14;95540.88;;;17.40;23.49
64064;BME280;50314;50.618;10.642;2024-03-02T02:30:39;95548.84;;;17.40;23.41
64064;BME280;50314;50.618;10.642;2024-03-02T02:33:05;95539.19;;;17.38;23.55
64064;BME280;50314;50.618;10.642;2024-03-02T02:35:30;95547.19;;;17.38;23.27
64064;BME280;50314;50.618;10.642;2024-03-02T02:37:57;95542.88;;;17.37;23.11
64064;BME280;50314;50.618;10.642;2024-03-02T02:40:24;95547.38;;;17.37;23.21
64064;BME280;50314;50.618;10.642;2024-03-02T02:42:50;95544.72;;;17.37;23.52
64064;BME280;50314;50.618;10.642;2024-03-02T02:45:17;95541.50;;;17.27;23.57
64064;BME280;50314;50.618;10.642;2024-03-02T02:47:42;95541.59;;;17.33;23.49
64064;BME280;50314;50.618;10.642;2024-03-02T02:50:09;95537.09;;;17.34;23.29
64064;BME280;50314;50.618;10.642;2024-03-02T02:52:35;95539.75;;;17.34;23.30
64064;BME280;50314;50.618;10.642;2024-03-02T02:55:04;95531.22;;;17.24;23.59
64064;BME280;50314;50.618;10.642;2024-03-02T02:57:31;95533.31;;;17.28;23.53
64064;BME280;50314;50.618;10.642;2024-03-02T03:00:01;95524.34;;;17.29;23.25
64064;BME280;50314;50.618;10.642;2024-03-02T03:02:31;95526.16;;;17.29;23.14
64064;BME280;50314;50.618;10.642;2024-03-02T03:04:56;95524.34;;;17.29;23.24
64064;BME280;50314;50.618;10.642;2024-03-02T03:07:23;95520.84;;;17.29;23.50
64064;BME280;50314;50.618;10.642;2024-03-02T03:09:48;95530.50;;;17.30;23.35
64064;BME280;50314;50.618;10.642;2024-03-02T03:12:14;95517.38;;;17.28;23.38
64064;BME280;50314;50.618;10.642;2024-03-02T03:14:40;95521.88;;;17.28;23.50
64064;BME280;50314;50.618;10.642;2024-03-02T03:17:06;95514.91;;;17.27;23.25
64064;BME280;50314;50.618;10.642;2024-03-02T03:19:33;95513.25;;;17.26;23.51
64064;BME280;50314;50.618;10.642;2024-03-02T03:21:59;95517.72;;;17.25;23.32
64064;BME280;50314;50.618;10.642;2024-03-02T03:24:25;95519.56;;;17.25;23.27
64064;BME280;50314;50.618;10.642;2024-03-02T03:26:50;95516.09;;;17.24;23.66
64064;BME280;50314;50.618;10.642;2024-03-02T03:29:15;95516.09;;;17.24;23.29
64064;BME280;50314;50.618;10.642;2024-03-02T03:31:41;95513.63;;;17.23;23.42
64064;BME280;50314;50.618;10.642;2024-03-02T03:34:06;95518.94;;;17.23;23.50
64064;BME280;50314;50.618;10.642;2024-03-02T03:36:32;95522.44;;;17.23;23.56
64064;BME280;50314;50.618;10.642;2024-03-02T03:38:57;95521.78;;;17.21;23.44
64064;BME280;50314;50.618;10.642;2024-03-02T03:41:23;95511.13;;;17.21;23.50
64064;BME280;50314;50.618;10.642;2024-03-02T03:43:49;95512.97;;;17.21;23.27
64064;BME280;50314;50.618;10.642;2024-03-02T03:46:15;95513.16;;;17.19;23.29
64064;BME280;50314;50.618;10.642;2024-03-02T03:48:40;95519.31;;;17.20;23.41
64064;BME280;50314;50.618;10.642;2024-03-02T03:51:07;95522.13;;;17.18;23.47
64064;BME280;50314;50.618;10.642;2024-03-02T03:53:32;95526.63;;;17.18;23.49
64064;BME280;50314;50.618;10.642;2024-03-02T03:55:58;95524.78;;;17.18;23.30
64064;BME280;50314;50.618;10.642;2024-03-02T03:58:23;95518.66;;;17.18;23.45
64064;BME280;50314;50.618;10.642;2024-03-02T04:00:49;95520.50;;;17.17;23.51
64064;BME280;50314;50.618;10.642;2024-03-02T04:03:14;95524.16;;;17.16;23.43
64064;BME280;50314;50.618;10.642;2024-03-02T04:05:40;95521.69;;;17.14;23.35
64064;BME280;50314;50.618;10.642;2024-03-02T04:08:05;95520.03;;;17.13;23.67
64064;BME280;50314;50.618;10.642;2024-03-02T04:10:31;95512.06;;;17.13;23.36
64064;BME280;50314;50.618;10.642;2024-03-02T04:12:56;95509.56;;;17.12;23.36
64064;BME280;50314;50.618;10.642;2024-03-02T04:15:22;95510.41;;;17.12;23.22
64064;BME280;50314;50.618;10.642;2024-03-02T04:17:48;95517.53;;;17.12;23.39
64064;BME280;50314;50.618;10.642;2024-03-02T04:20:14;95522.84;;;17.12;23.64
64064;BME280;50314;50.618;10.642;2024-03-02T04:22:39;95522.03;;;17.11;23.41
64064;BME280;50314;50.618;10.642;2024-03-02T04:25:05;95526.53;;;17.11;23.60
64064;BME280;50314;50.618;10.642;2024-03-02T04:27:32;95522.22;;;17.10;23.53
64064;BME280;50314;50.618;10.642;2024-03-02T04:29:58;95519.56;;;17.10;23.36
64064;BME280;50314;50.618;10.642;2024-03-02T04:32:26;95517.09;;;17.08;23.58
64064;BME280;50314;50.618;10.642;2024-03-02T04:34:52;95525.91;;;17.09;23.31
64064;BME280;50314;50.618;10.642;2024-03-02T04:37:18;95521.59;;;17.08;23.40
64064;BME280;50314;50.618;10.642;2024-03-02T04:39:44;95527.91;;;17.07;23.42
64064;BME280;50314;50.618;10.642;2024-03-02T04:42:09;95525.25;;;17.07;23.33
64064;BME280;50314;50.618;10.642;2024-03-02T04:44:35;95541.22;;;17.07;23.59
64064;BME280;50314;50.618;10.642;2024-03-02T04:47:00;95536.91;;;17.06;23.52
64064;BME280;50314;50.618;10.642;2024-03-02T04:49:26;95546.91;;;17.04;23.33
64064;BME280;50314;50.618;10.642;2024-03-02T04:51:51;95544.25;;;17.04;23.71
64064;BME280;50314;50.618;10.642;2024-03-02T04:54:17;95542.59;;;17.03;23.35
64064;BME280;50314;50.618;10.642;2024-03-02T04:56:43;95552.56;;;17.01;23.64
64064;BME280;50314;50.618;10.642;2024-03-02T04:59:18;95552.13;;;16.97;23.49
64064;BME280;50314;50.618;10.642;2024-03-02T05:01:44;95544.13;;;16.97;23.55
64064;BME280;50314;50.618;10.642;2024-03-02T05:04:10;95537.19;;;16.96;23.36
64064;BME280;50314;50.618;10.642;2024-03-02T05:06:40;95536.53;;;16.94;23.72
64064;BME280;50314;50.618;10.642;2024-03-02T05:09:09;95542.66;;;16.95;23.68
64064;BME280;50314;50.618;10.642;2024-03-02T05:11:35;95540.19;;;16.93;23.63
64064;BME280;50314;50.618;10.642;2024-03-02T05:14:04;95545.50;;;16.93;23.75
64064;BME280;50314;50.618;10.642;2024-03-02T05:16:33;95549.19;;;16.92;23.76
64064;BME280;50314;50.618;10.642;2024-03-02T05:18:59;95553.66;;;16.91;23.50
64064;BME280;50314;50.618;10.642;2024-03-02T05:21:24;95552.00;;;16.90;23.70
64064;BME280;50314;50.618;10.642;2024-03-02T05:23:50;95555.69;;;16.89;23.60
64064;BME280;50314;50.618;10.642;2024-03-02T05:26:15;95544.22;;;16.89;23.71
64064;BME280;50314;50.618;10.642;2024-03-02T05:28:42;95550.38;;;16.89;23.50
64064;BME280;50314;50.618;10.642;2024-03-02T05:31:10;95548.91;;;16.87;23.90
64064;BME280;50314;50.618;10.642;2024-03-02T05:33:39;95551.56;;;16.87;23.59
64064;BME280;50314;50.618;10.642;2024-03-02T05:36:05;95559.53;;;16.87;23.52
64064;BME280;50314;50.618;10.642;2024-03-02T05:38:32;95557.69;;;16.87;23.69
64064;BME280;50314;50.618;10.642;2024-03-02T05:40:57;95561.38;;;16.86;23.57
64064;BME280;50314;50.618;10.642;2024-03-02T05:43:23;95563.22;;;16.86;23.66
64064;BME280;50314;50.618;10.642;2024-03-02T05:45:48;95561.53;;;16.85;23.78
64064;BME280;50314;50.618;10.642;2024-03-02T05:48:14;95568.69;;;16.84;23.85
64064;BME280;50314;50.618;10.642;2024-03-02T05:50:40;95568.69;;;16.84;23.58
64064;BME280;50314;50.618;10.642;2024-03-02T05:53:05;95573.19;;;16.84;23.65
64064;BME280;50314;50.618;10.642;2024-03-02T05:55:31;95566.22;;;16.83;23.58
64064;BME280;50314;50.618;10.642;2024-03-02T05:57:56;95567.03;;;16.83;23.91
64064;BME280;50314;50.618;10.642;2024-03-02T06:00:42;95570.72;;;16.82;23.60
64064;BME280;50314;50.618;10.642;2024-03-02T06:03:08;95569.03;;;16.81;23.65
64064;BME280;50314;50.618;10.642;2024-03-02T06:05:34;95572.56;;;16.82;23.75
64064;BME280;50314;50.618;10.642;2024-03-02T06:08:00;95568.22;;;16.81;23.85
64064;BME280;50314;50.618;10.642;2024-03-02T06:10:25;95572.56;;;16.82;23.50
64064;BME280;50314;50.618;10.642;2024-03-02T06:12:51;95578.69;;;16.82;23.70
64064;BME280;50314;50.618;10.642;2024-03-02T06:15:16;95575.22;;;16.82;23.66
64064;BME280;50314;50.618;10.642;2024-03-02T06:17:42;95576.03;;;16.82;23.71
64064;BME280;50314;50.618;10.642;2024-03-02T06:20:08;95568.06;;;16.82;23.82
64064;BME280;50314;50.618;10.642;2024-03-02T06:22:34;95570.72;;;16.82;23.90
64064;BME280;50314;50.618;10.642;2024-03-02T06:25:00;95573.38;;;16.82;24.03
64064;BME280;50314;50.618;10.642;2024-03-02T06:27:25;95585.66;;;16.83;24.12
64064;BME280;50314;50.618;10.642;2024-03-02T06:29:51;95583.00;;;16.83;23.96
64064;BME280;50314;50.618;10.642;2024-03-02T06:32:17;95584.00;;;16.82;23.95
64064;BME280;50314;50.618;10.642;2024-03-02T06:34:42;95593.63;;;16.83;23.95
64064;BME280;50314;50.618;10.642;2024-03-02T06:37:08;95588.31;;;16.83;23.63
64064;BME280;50314;50.618;10.642;2024-03-02T06:39:33;95590.97;;;16.83;23.92
64064;BME280;50314;50.618;10.642;2024-03-02T06:42:00;95592.63;;;16.84;23.90
64064;BME280;50314;50.618;10.642;2024-03-02T06:44:25;95589.13;;;16.84;23.90
64064;BME280;50314;50.618;10.642;2024-03-02T06:46:51;95592.63;;;16.84;23.86
64064;BME280;50314;50.618;10.642;2024-03-02T06:49:16;95588.97;;;16.85;24.03
64064;BME280;50314;50.618;10.642;2024-03-02T06:51:44;95600.44;;;16.86;23.89
64064;BME280;50314;50.618;10.642;2024-03-02T06:54:09;95598.59;;;16.86;24.02
64064;BME280;50314;50.618;10.642;2024-03-02T06:56:35;95603.09;;;16.86;23.85
64064;BME280;50314;50.618;10.642;2024-03-02T06:59:00;95604.72;;;16.87;23.80
64064;BME280;50314;50.618;10.642;2024-03-02T07:01:26;95602.06;;;16.87;23.86
64064;BME280;50314;50.618;10.642;2024-03-02T07:03:53;95602.91;;;16.87;24.09
64064;BME280;50314;50.618;10.642;2024-03-02T07:06:18;95610.88;;;16.87;24.09
64064;BME280;50314;50.618;10.642;2024-03-02T07:08:44;95613.53;;;16.87;23.90
64064;BME280;50314;50.618;10.642;2024-03-02T07:11:09;95603.72;;;16.88;23.86
64064;BME280;50314;50.618;10.642;2024-03-02T07:13:35;95604.53;;;16.88;23.72
64064;BME280;50314;50.618;10.642;2024-03-02T07:16:00;95599.22;;;16.88;24.08
64064;BME280;50314;50.618;10.642;2024-03-02T07:18:32;95605.56;;;16.87;24.09
64064;BME280;50314;50.618;10.642;2024-03-02T07:20:59;95607.19;;;16.88;24.01
64064;BME280;50314;50.618;10.642;2024-03-02T07:23:26;95609.69;;;16.90;24.20
64064;BME280;50314;50.618;10.642;2024-03-02T07:25:56;95607.03;;;16.90;24.13
64064;BME280;50314;50.618;10.642;2024-03-02T07:28:22;95610.53;;;16.90;24.44
64064;BME280;50314;50.618;10.642;2024-03-02T07:31:08;95617.22;;;16.86;24.33
64064;BME280;50314;50.618;10.642;2024-03-02T07:33:35;95622.81;;;16.91;24.16
64064;BME280;50314;50.618;10.642;2024-03-02T07:36:01;95625.31;;;16.93;24.43
64064;BME280;50314;50.618;10.642;2024-03-02T07:38:31;95621.00;;;16.92;24.38
64064;BME280;50314;50.618;10.642;2024-03-02T07:40:57;95616.31;;;16.94;24.33
64064;BME280;50314;50.618;10.642;2024-03-02T07:43:23;95621.63;;;16.94;24.24
64064;BME280;50314;50.618;10.642;2024-03-02T07:45:49;95626.13;;;16.94;24.09
64064;BME280;50314;50.618;10.642;2024-03-02T07:48:15;95615.47;;;16.94;24.50
64064;BME280;50314;50.618;10.642;2024-03-02T07:50:40;95625.09;;;16.95;24.30
64064;BME280;50314;50.618;10.642;2024-03-02T07:53:06;95622.28;;;16.96;24.37
64064;BME280;50314;50.618;10.642;2024-03-02T07:55:33;95629.44;;;16.96;24.47
64064;BME280;50314;50.618;10.642;2024-03-02T07:58:01;95620.44;;;16.97;24.18
64064;BME280;50314;50.618;10.642;2024-03-02T08:00:27;95631.09;;;16.97;24.29
64064;BME280;50314;50.618;10.642;2024-03-02T08:02:54;95621.28;;;16.97;24.21
64064;BME280;50314;50.618;10.642;2024-03-02T08:05:20;95627.41;;;16.98;24.25
64064;BME280;50314;50.618;10.642;2024-03-02T08:07:46;95631.75;;;16.99;24.28
64064;BME280;50314;50.618;10.642;2024-03-02T08:10:12;95637.06;;;16.99;24.70
64064;BME280;50314;50.618;10.642;2024-03-02T08:12:38;95633.38;;;17.00;24.40
64064;BME280;50314;50.618;10.642;2024-03-02T08:15:04;95632.38;;;17.01;24.27
64064;BME280;50314;50.618;10.642;2024-03-02T08:17:30;95624.41;;;17.01;24.60
64064;BME280;50314;50.618;10.642;2024-03-02T08:19:56;95625.22;;;17.01;24.59
64064;BME280;50314;50.618;10.642;2024-03-02T08:22:22;95621.56;;;17.02;24.72
64064;BME280;50314;50.618;10.642;2024-03-02T08:24:48;95619.72;;;17.03;24.47
64064;BME280;50314;50.618;10.642;2024-03-02T08:27:13;95623.03;;;17.05;24.61
64064;BME280;50314;50.618;10.642;2024-03-02T08:29:40;95623.03;;;17.05;24.50
64064;BME280;50314;50.618;10.642;2024-03-02T08:32:06;95625.69;;;17.05;24.53
64064;BME280;50314;50.618;10.642;2024-03-02T08:34:32;95630.03;;;17.06;24.55
64064;BME280;50314;50.618;10.642;2024-03-02T08:36:59;95621.19;;;17.05;24.46
64064;BME280;50314;50.618;10.642;2024-03-02T08:39:24;95618.38;;;17.07;24.61
64064;BME280;50314;50.618;10.642;2024-03-02T08:41:50;95624.50;;;17.07;24.63
64064;BME280;50314;50.618;10.642;2024-03-02T08:44:17;95627.00;;;17.09;24.78
64064;BME280;50314;50.618;10.642;2024-03-02T08:46:43;95622.50;;;17.09;24.75
64064;BME280;50314;50.618;10.642;2024-03-02T08:49:09;95632.13;;;17.10;24.84
64064;BME280;50314;50.618;10.642;2024-03-02T08:51:35;95631.09;;;17.11;24.89
64064;BME280;50314;50.618;10.642;2024-03-02T08:54:00;95628.44;;;17.11;24.83
64064;BME280;50314;50.618;10.642;2024-03-02T08:56:26;95634.44;;;17.13;24.54
64064;BME280;50314;50.618;10.642;2024-03-02T08:58:51;95637.09;;;17.13;24.76
64064;BME280;50314;50.618;10.642;2024-03-02T09:01:18;95633.41;;;17.14;24.48
64064;BME280;50314;50.618;10.642;2024-03-02T09:03:45;95633.41;;;17.14;24.78
64064;BME280;50314;50.618;10.642;2024-03-02T09:06:11;95633.25;;;17.16;24.63
64064;BME280;50314;50.618;10.642;2024-03-02T09:08:37;95630.41;;;17.18;24.72
64064;BME280;50314;50.618;10.642;2024-03-02T09:11:04;95637.34;;;17.19;24.79
64064;BME280;50314;50.618;10.642;2024-03-02T09:13:29;95642.53;;;17.20;24.85
64064;BME280;50314;50.618;10.642;2024-03-02T09:15:55;95642.53;;;17.20;24.53
64064;BME280;50314;50.618;10.642;2024-03-02T09:18:21;95639.66;;;17.22;24.45
64064;BME280;50314;50.618;10.642;2024-03-02T09:20:46;95643.16;;;17.22;24.94
64064;BME280;50314;50.618;10.642;2024-03-02T09:23:12;95642.16;;;17.23;24.76
64064;BME280;50314;50.618;10.642;2024-03-02T09:25:37;95638.47;;;17.24;24.86
64064;BME280;50314;50.618;10.642;2024-03-02T09:28:03;95639.13;;;17.26;24.89
64064;BME280;50314;50.618;10.642;2024-03-02T09:30:28;95644.25;;;17.28;24.71
64064;BME280;50314;50.618;10.642;2024-03-02T09:32:54;95641.44;;;17.29;24.60
64064;BME280;50314;50.618;10.642;2024-03-02T09:35:20;95643.09;;;17.30;24.98
64064;BME280;50314;50.618;10.642;2024-03-02T09:37:45;95635.72;;;17.32;24.92
64064;BME280;50314;50.618;10.642;2024-03-02T09:40:12;95630.25;;;17.34;24.96
64064;BME280;50314;50.618;10.642;2024-03-02T09:42:38;95637.03;;;17.36;24.88
64064;BME280;50314;50.618;10.642;2024-03-02T09:45:05;95634.19;;;17.38;24.99
64064;BME280;50314;50.618;10.642;2024-03-02T09:47:31;95634.03;;;17.40;25.12
64064;BME280;50314;50.618;10.642;2024-03-02T09:49:56;95636.50;;;17.41;24.85
64064;BME280;50314;50.618;10.642;2024-03-02T09:52:22;95639.97;;;17.42;24.61
64064;BME280;50314;50.618;10.642;2024-03-02T09:54:48;95642.28;;;17.45;25.06
64064;BME280;50314;50.618;10.642;2024-03-02T09:57:15;95642.09;;;17.46;24.93
64064;BME280;50314;50.618;10.642;2024-03-02T09:59:40;95640.25;;;17.47;24.87
64064;BME280;50314;50.618;10.642;2024-03-02T10:02:06;95642.75;;;17.48;24.82
64064;BME280;50314;50.618;10.642;2024-03-02T10:04:32;95644.25;;;17.51;24.75
64064;BME280;50314;50.618;10.642;2024-03-02T10:07:19;95642.94;;;17.47;25.13
64064;BME280;50314;50.618;10.642;2024-03-02T10:09:46;95646.53;;;17.54;25.04
64064;BME280;50314;50.618;10.642;2024-03-02T10:12:14;95647.16;;;17.56;25.20
64064;BME280;50314;50.618;10.642;2024-03-02T10:14:40;95655.00;;;17.57;25.11
64064;BME280;50314;50.618;10.642;2024-03-02T10:17:11;95652.97;;;17.59;25.35
64064;BME280;50314;50.618;10.642;2024-03-02T10:19:37;95651.78;;;17.62;25.07
64064;BME280;50314;50.618;10.642;2024-03-02T10:22:05;95652.41;;;17.64;24.92
64064;BME280;50314;50.618;10.642;2024-03-02T10:24:41;95647.09;;;17.64;25.27
64064;BME280;50314;50.618;10.642;2024-03-02T10:27:27;95650.78;;;17.63;25.15
64064;BME280;50314;50.618;10.642;2024-03-02T10:29:53;95650.69;;;17.71;24.96
64064;BME280;50314;50.618;10.642;2024-03-02T10:32:22;95642.50;;;17.73;24.79
64064;BME280;50314;50.618;10.642;2024-03-02T10:34:48;95644.63;;;17.77;24.83
64064;BME280;50314;50.618;10.642;2024-03-02T10:37:14;95643.44;;;17.80;24.96
64064;BME280;50314;50.618;10.642;2024-03-02T10:39:40;95643.03;;;17.83;25.04
64064;BME280;50314;50.618;10.642;2024-03-02T10:42:06;95643.69;;;17.85;24.72
64064;BME280;50314;50.618;10.642;2024-03-02T10:44:32;95646.81;;;17.89;25.08
64064;BME280;50314;50.618;10.642;2024-03-02T10:47:03;95637.81;;;17.90;24.98
64064;BME280;50314;50.618;10.642;2024-03-02T10:49:30;95644.44;;;17.94;25.06
64064;BME280;50314;50.618;10.642;2024-03-02T10:51:58;95642.41;;;17.96;24.97
64064;BME280;50314;50.618;10.642;2024-03-02T10:54:23;95645.78;;;17.90;25.07
64064;BME280;50314;50.618;10.642;2024-03-02T10:56:53;95650.03;;;17.99;24.78
64064;BME280;50314;50.618;10.642;2024-03-02T10:59:32;95650.84;;;17.99;25.21
64064;BME280;50314;50.618;10.642;2024-03-02T11:01:59;95656.25;;;18.06;24.93
64064;BME280;50314;50.618;10.642;2024-03-02T11:04:26;95651.56;;;18.08;24.95
64064;BME280;50314;50.618;10.642;2024-03-02T11:06:58;95657.56;;;18.10;24.68
64064;BME280;50314;50.618;10.642;2024-03-02T11:09:27;95650.88;;;18.14;24.96
64064;BME280;50314;50.618;10.642;2024-03-02T11:12:15;95643.88;;;18.13;24.78
64064;BME280;50314;50.618;10.642;2024-03-02T11:14:44;95655.47;;;18.20;24.87
64064;BME280;50314;50.618;10.642;2024-03-02T11:17:10;95649.72;;;18.23;24.63
64064;BME280;50314;50.618;10.642;2024-03-02T11:19:38;95649.34;;;18.26;24.61
64064;BME280;50314;50.618;10.642;2024-03-02T11:22:05;95641.19;;;18.28;25.02
64064;BME280;50314;50.618;10.642;2024-03-02T11:24:31;95636.31;;;18.31;24.65
64064;BME280;50314;50.618;10.642;2024-03-02T11:27:02;95643.13;;;18.34;24.68
64064;BME280;50314;50.618;10.642;2024-03-02T11:32:21;95637.78;;;18.34;24.41
64064;BME280;50314;50.618;10.642;2024-03-02T11:34:50;95633.53;;;18.40;24.59
64064;BME280;50314;50.618;10.642;2024-03-02T11:37:18;95636.63;;;18.43;24.63
64064;BME280;50314;50.618;10.642;2024-03-02T11:39:46;95635.28;;;18.47;24.69
64064;BME280;50314;50.618;10.642;2024-03-02T11:42:13;95628.72;;;18.50;24.69
64064;BME280;50314;50.618;10.642;2024-03-02T11:44:42;95628.34;;;18.53;24.60
64064;BME280;50314;50.618;10.642;2024-03-02T11:47:11;95616.47;;;18.55;24.67
64064;BME280;50314;50.618;10.642;2024-03-02T11:49:45;95621.22;;;18.60;25.12
64064;BME280;50314;50.618;10.642;2024-03-02T11:52:14;95623.50;;;18.63;24.89
64064;BME280;50314;50.618;10.642;2024-03-02T11:54:42;95619.44;;;18.67;24.70
64064;BME280;50314;50.618;10.642;2024-03-02T11:57:16;95612.91;;;18.70;24.83
64064;BME280;50314;50.618;10.642;2024-03-02T11:59:42;95602.88;;;18.72;24.86
64064;BME280;50314;50.618;10.642;2024-03-02T12:02:19;95602.88;;;18.72;24.69
64064;BME280;50314;50.618;10.642;2024-03-02T12:04:46;95594.97;;;18.78;25.05
64064;BME280;50314;50.618;10.642;2024-03-02T12:07:21;95596.63;;;18.80;24.67
64064;BME280;50314;50.618;10.642;2024-03-02T12:09:48;95600.38;;;18.85;24.67
64064;BME280;50314;50.618;10.642;2024-03-02T12:12:14;95599.16;;;18.88;24.83
64064;BME280;50314;50.618;10.642;2024-03-02T12:14:52;95588.50;;;18.88;24.65
64064;BME280;50314;50.618;10.642;2024-03-02T12:17:18;95591.41;;;18.93;24.62
64064;BME280;50314;50.618;10.642;2024-03-02T12:19:44;95589.16;;;18.96;24.72
64064;BME280;50314;50.618;10.642;2024-03-02T12:22:11;95585.31;;;18.99;24.77
64064;BME280;50314;50.618;10.642;2024-03-02T12:24:37;95582.25;;;19.02;24.55
64064;BME280;50314;50.618;10.642;2024-03-02T12:27:04;95586.19;;;19.06;24.56
64064;BME280;50314;50.618;10.642;2024-03-02T12:29:29;95587.75;;;19.00;24.88
64064;BME280;50314;50.618;10.642;2024-03-02T12:31:55;95580.44;;;19.09;24.94
64064;BME280;50314;50.618;10.642;2024-03-02T12:34:21;95575.56;;;19.13;24.99
64064;BME280;50314;50.618;10.642;2024-03-02T12:36:48;95571.69;;;19.15;24.74
64064;BME280;50314;50.618;10.642;2024-03-02T12:39:18;95564.91;;;19.19;24.83
64064;BME280;50314;50.618;10.642;2024-03-02T12:41:43;95574.38;;;19.22;24.61
64064;BME280;50314;50.618;10.642;2024-03-02T12:44:09;95575.81;;;19.24;24.54
64064;BME280;50314;50.618;10.642;2024-03-02T12:46:35;95579.78;;;19.29;24.83
64064;BME280;50314;50.618;10.642;2024-03-02T12:49:14;95567.44;;;19.28;24.73
64064;BME280;50314;50.618;10.642;2024-03-02T12:51:45;95566.47;;;19.35;24.76
64064;BME280;50314;50.618;10.642;2024-03-02T12:54:16;95569.59;;;19.39;24.66